Time;durP1;ratioP1;P1;durP2;ratioP2;P2;SDS_P1;SDS_P2;PMS_P1;PMS_P2;Temp;Humidity;BMP_temperature;BMP_pressure;BME280_temperature;BME280_humidity;BME280_pressure;Samples;Min_cycle;Max_cycle;Signal;HPM_P1;HPM_P2
2021/05/14 00:00:22;;;;;;;22.88;15.18;;;;;;;14.84;70.45;100739.88;6337048;28;20206;-71
2021/05/14 00:03:33;;;;;;;23.63;15.43;;;;;;;14.88;69.16;100718.25;6336192;28;20264;-71
2021/05/14 00:06:36;;;;;;;18.40;15.23;;;;;;;14.95;69.17;100725.25;6335276;28;20261;-70
2021/05/14 00:09:41;;;;;;;20.52;16.30;;;;;;;15.00;69.14;100716.25;6336662;28;20512;-70
2021/05/14 00:12:45;;;;;;;25.05;16.10;;;;;;;14.92;69.69;100714.75;6337701;28;20214;-71
2021/05/14 00:15:48;;;;;;;21.02;16.35;;;;;;;14.91;69.50;100717.75;6337636;28;20183;-71
2021/05/14 00:18:53;;;;;;;20.15;16.00;;;;;;;14.78;70.38;100718.91;6337581;28;20190;-72
2021/05/14 00:21:57;;;;;;;25.67;17.45;;;;;;;14.83;70.87;100710.75;6337966;28;20212;-71
2021/05/14 00:25:02;;;;;;;18.40;16.35;;;;;;;14.68;71.74;100702.25;6336449;28;20376;-72
2021/05/14 00:28:06;;;;;;;21.08;15.65;;;;;;;14.61;71.97;100701.56;6336516;28;20194;-72
2021/05/14 00:31:09;;;;;;;20.67;15.85;;;;;;;14.41;72.54;100702.00;6336502;28;20186;-72
2021/05/14 00:34:14;;;;;;;20.13;15.95;;;;;;;14.41;72.60;100691.03;6337427;28;20211;-72
2021/05/14 00:37:17;;;;;;;21.80;16.25;;;;;;;14.53;72.01;100693.75;6337389;28;20228;-72
2021/05/14 00:40:21;;;;;;;20.40;16.13;;;;;;;14.53;72.89;100693.75;6337568;28;20246;-71
2021/05/14 00:43:25;;;;;;;20.98;16.67;;;;;;;14.43;72.47;100693.56;6337694;28;20187;-71
2021/05/14 00:46:28;;;;;;;21.90;16.02;;;;;;;14.48;72.24;100688.16;6337530;28;20254;-71
2021/05/14 00:49:33;;;;;;;20.58;16.42;;;;;;;14.55;71.82;100691.56;6336689;28;20225;-71
2021/05/14 00:52:37;;;;;;;24.40;16.60;;;;;;;14.47;71.81;100689.22;6337410;28;20191;-71
2021/05/14 00:55:40;;;;;;;21.98;16.50;;;;;;;14.45;72.51;100680.41;6337020;28;20250;-71
2021/05/14 00:58:45;;;;;;;20.38;16.40;;;;;;;14.44;73.19;100678.72;6337357;28;20254;-72
2021/05/14 01:01:48;;;;;;;21.88;16.15;;;;;;;14.33;71.83;100676.88;6348879;22;20226;-69
2021/05/14 01:04:53;;;;;;;18.67;16.17;;;;;;;14.20;73.20;100671.66;6337871;28;20225;-69
2021/05/14 01:07:58;;;;;;;19.40;15.68;;;;;;;13.94;74.09;100677.72;6341791;28;20182;-69
2021/05/14 01:11:01;;;;;;;21.65;16.55;;;;;;;13.84;74.33;100677.50;6342305;28;20189;-69
2021/05/14 01:14:05;;;;;;;26.52;16.42;;;;;;;13.76;74.60;100670.50;6341895;28;20245;-69
2021/05/14 01:17:10;;;;;;;23.30;15.95;;;;;;;13.67;74.54;100678.25;6340899;28;20541;-69
2021/05/14 01:20:15;;;;;;;20.27;16.75;;;;;;;13.64;74.10;100678.72;6341780;28;20190;-69
2021/05/14 01:23:20;;;;;;;22.45;16.08;;;;;;;13.80;73.81;100677.97;6340720;28;20187;-69
2021/05/14 01:26:26;;;;;;;20.85;16.25;;;;;;;13.70;74.51;100672.28;6340477;28;20445;-69
2021/05/14 01:29:29;;;;;;;23.52;16.23;;;;;;;13.84;73.74;100663.78;6341860;28;20218;-69
2021/05/14 01:32:33;;;;;;;22.95;16.58;;;;;;;13.76;74.59;100674.03;6340466;28;20482;-69
2021/05/14 01:35:37;;;;;;;20.65;15.88;;;;;;;13.60;75.25;100677.53;6340230;28;20217;-69
2021/05/14 01:38:41;;;;;;;20.20;15.85;;;;;;;13.59;75.38;100675.88;6340342;28;20380;-69
2021/05/14 01:41:45;;;;;;;21.05;16.20;;;;;;;13.49;75.61;100681.13;6341611;28;20183;-69
2021/05/14 01:44:49;;;;;;;24.38;16.83;;;;;;;13.51;75.79;100678.97;6341561;28;20187;-69
2021/05/14 01:47:53;;;;;;;21.50;16.23;;;;;;;13.32;76.77;100674.72;6341135;28;20220;-69
2021/05/14 01:50:57;;;;;;;21.15;17.17;;;;;;;13.23;77.28;100700.78;6341083;28;20190;-69
2021/05/14 01:54:02;;;;;;;20.20;17.02;;;;;;;13.24;76.82;100672.31;6339948;28;20433;-69
2021/05/14 01:57:07;;;;;;;25.20;18.30;;;;;;;13.21;76.86;100688.38;6340930;28;20276;-69
2021/05/14 02:00:12;;;;;;;22.23;17.05;;;;;;;13.21;76.83;100683.75;6339887;28;20541;-69
2021/05/14 02:03:16;;;;;;;20.63;16.48;;;;;;;13.26;76.43;100686.63;6340042;28;20230;-69
2021/05/14 02:06:20;;;;;;;27.58;18.70;;;;;;;13.24;76.36;100685.19;6340950;28;20183;-69
2021/05/14 02:09:24;;;;;;;22.52;16.75;;;;;;;13.22;77.53;100684.59;6339617;28;20490;-69
2021/05/14 02:12:28;;;;;;;24.63;17.10;;;;;;;13.06;78.06;100697.06;6340919;28;20221;-69
2021/05/14 02:15:32;;;;;;;24.65;17.90;;;;;;;12.83;79.40;100686.91;6340021;28;20548;-69
2021/05/14 02:18:38;;;;;;;23.02;17.70;;;;;;;12.76;79.47;100690.81;6339468;28;20251;-69
2021/05/14 02:21:41;;;;;;;20.75;16.30;;;;;;;12.84;79.41;100699.50;6340760;28;20267;-69
2021/05/14 02:24:46;;;;;;;23.13;17.10;;;;;;;13.04;78.38;100688.25;6340406;28;20225;-69
2021/05/14 02:27:50;;;;;;;26.70;17.50;;;;;;;12.96;78.37;100685.84;6340663;28;20190;-69
2021/05/14 02:30:54;;;;;;;21.98;17.70;;;;;;;12.95;77.69;100695.97;6340485;28;20198;-69
2021/05/14 02:33:58;;;;;;;22.38;17.67;;;;;;;12.97;77.28;100698.44;6340326;28;20210;-69
2021/05/14 02:37:01;;;;;;;21.10;16.85;;;;;;;12.87;77.61;100689.97;6340512;28;20321;-69
2021/05/14 02:40:07;;;;;;;21.73;16.85;;;;;;;12.89;77.74;100687.88;6340424;28;20195;-69
2021/05/14 02:43:11;;;;;;;24.45;17.70;;;;;;;12.91;77.52;100680.25;6340266;28;20183;-69
2021/05/14 02:46:15;;;;;;;22.08;16.88;;;;;;;12.94;77.37;100688.00;6339899;28;20189;-69
2021/05/14 02:49:19;;;;;;;22.42;17.08;;;;;;;12.93;77.45;100681.69;6338713;28;20376;-69
2021/05/14 02:52:22;;;;;;;24.30;17.75;;;;;;;12.81;78.23;100688.22;6338770;28;20501;-69
2021/05/14 02:55:27;;;;;;;25.15;18.08;;;;;;;12.91;77.20;100693.94;6338455;28;20485;-69
2021/05/14 02:58:31;;;;;;;22.70;17.15;;;;;;;12.90;77.49;100692.25;6339940;28;20281;-69
2021/05/14 03:01:34;;;;;;;22.80;17.33;;;;;;;12.86;77.23;100691.06;6339310;28;20206;-71
2021/05/14 03:04:38;;;;;;;22.52;16.70;;;;;;;12.81;77.01;100677.25;6288385;28;20376;-71
2021/05/14 03:07:41;;;;;;;25.08;17.05;;;;;;;12.64;78.61;100670.78;6288399;28;20375;-71
2021/05/14 03:10:50;;;;;;;23.70;17.85;;;;;;;12.69;78.71;100673.63;6289298;28;20252;-71
2021/05/14 03:13:54;;;;;;;28.17;17.77;;;;;;;12.87;78.34;100687.25;6289502;28;20212;-71
2021/05/14 03:16:59;;;;;;;21.25;16.63;;;;;;;12.99;77.95;100668.94;6289159;28;20184;-70
2021/05/14 03:20:04;;;;;;;22.83;17.17;;;;;;;12.93;78.61;100680.84;6288344;28;20247;-70
2021/05/14 03:23:07;;;;;;;25.77;17.20;;;;;;;12.67;80.52;100670.31;6287904;28;20409;-70
2021/05/14 03:26:12;;;;;;;23.08;17.80;;;;;;;12.66;80.29;100672.19;6287823;28;20195;-70
2021/05/14 03:29:16;;;;;;;25.67;17.27;;;;;;;12.69;80.65;100668.16;6287013;28;20382;-70
2021/05/14 03:32:20;;;;;;;23.98;17.58;;;;;;;12.64;80.57;100659.81;6288844;28;20230;-70
2021/05/14 03:35:26;;;;;;;25.00;18.13;;;;;;;12.70;80.64;100664.38;6287506;28;20485;-70
2021/05/14 03:38:32;;;;;;;31.50;18.33;;;;;;;12.70;80.32;100672.59;6288589;28;20184;-70
2021/05/14 03:41:47;;;;;;;25.42;18.45;;;;;;;12.53;80.90;100666.97;6287553;28;20497;-70
2021/05/14 03:44:51;;;;;;;24.30;18.05;;;;;;;12.52;80.64;100668.88;6287417;28;20356;-70
2021/05/14 03:47:55;;;;;;;21.65;18.10;;;;;;;12.55;80.74;100681.25;6287770;28;20188;-70
2021/05/14 03:50:58;;;;;;;28.08;18.63;;;;;;;12.62;80.67;100675.66;6288251;28;20230;-70
2021/05/14 03:54:03;;;;;;;22.90;18.23;;;;;;;12.76;80.19;100674.41;6287165;28;20275;-70
2021/05/14 03:57:09;;;;;;;22.27;17.98;;;;;;;12.87;79.44;100670.81;6288078;28;20184;-71
2021/05/14 04:00:13;;;;;;;25.70;17.92;;;;;;;12.63;80.34;100669.13;6286789;28;20418;-70
2021/05/14 04:03:21;;;;;;;23.13;18.88;;;;;;;12.65;80.64;100658.75;6315932;28;20533;-70
2021/05/14 04:06:26;;;;;;;24.77;18.30;;;;;;;12.82;80.05;100667.94;6337984;28;20191;-70
2021/05/14 04:09:30;;;;;;;22.85;18.35;;;;;;;12.94;79.67;100666.09;6338246;28;20214;-70
2021/05/14 04:15:57;;;;;;;24.52;19.02;;;;;;;12.99;79.35;100674.44;6336711;28;20218;-70
2021/05/14 04:19:02;;;;;;;26.05;18.67;;;;;;;13.17;78.69;100669.69;6337749;28;20214;-70
2021/05/14 04:22:07;;;;;;;24.88;18.23;;;;;;;13.36;77.35;100666.81;6335943;28;20198;-71
2021/05/14 04:25:12;;;;;;;27.50;17.35;;;;;;;13.34;78.46;100669.81;6337652;28;20186;-70
2021/05/14 04:28:39;;;;;;;22.00;16.75;;;;;;;13.47;77.56;100664.09;6336948;28;20193;-71
2021/05/14 04:31:43;;;;;;;23.77;17.75;;;;;;;13.33;78.40;100664.59;6337916;28;20213;-71
2021/05/14 04:34:48;;;;;;;29.08;18.23;;;;;;;13.07;78.67;100644.00;6336314;28;20210;-71
2021/05/14 04:37:51;;;;;;;22.00;18.13;;;;;;;13.28;78.59;100657.06;6335560;28;20412;-71
2021/05/14 04:40:55;;;;;;;25.15;17.17;;;;;;;13.36;77.37;100659.44;6336526;28;20228;-70
2021/05/14 04:44:00;;;;;;;26.38;17.80;;;;;;;13.52;77.44;100663.38;6335653;28;20234;-71
2021/05/14 04:47:04;;;;;;;27.27;17.85;;;;;;;13.52;77.47;100655.97;6337675;28;20246;-71
2021/05/14 04:50:18;;;;;;;25.95;17.65;;;;;;;13.46;77.17;100662.41;6337716;28;20197;-71
2021/05/14 04:53:28;;;;;;;23.30;16.52;;;;;;;13.51;77.12;100661.69;6336187;28;20512;-70
2021/05/14 04:56:31;;;;;;;22.50;17.20;;;;;;;13.58;77.03;100657.78;6337392;28;20213;-70
2021/05/14 04:59:36;;;;;;;22.67;16.90;;;;;;;13.58;77.59;100654.19;6336163;28;20473;-71
2021/05/14 05:02:40;;;;;;;25.00;17.67;;;;;;;13.56;77.16;100651.66;6337305;28;20234;-71
2021/05/14 05:05:44;;;;;;;23.45;16.85;;;;;;;13.54;77.87;100651.09;6336026;28;20209;-71
2021/05/14 05:08:47;;;;;;;24.40;17.30;;;;;;;13.68;77.24;100657.16;6337111;28;20183;-71
2021/05/14 05:11:51;;;;;;;29.98;18.50;;;;;;;13.72;76.80;100648.19;6336036;28;20535;-70
2021/05/14 05:14:56;;;;;;;23.52;16.95;;;;;;;13.79;76.54;100646.13;6337002;28;20207;-71
2021/05/14 05:17:59;;;;;;;21.63;16.33;;;;;;;13.97;76.41;100649.81;6335962;28;20229;-71
2021/05/14 05:21:04;;;;;;;24.20;16.73;;;;;;;14.05;75.81;100638.41;6337372;28;20183;-71
2021/05/14 05:24:09;;;;;;;23.27;16.70;;;;;;;14.09;75.61;100647.84;6337251;28;20183;-71
2021/05/14 05:27:13;;;;;;;24.33;16.45;;;;;;;14.12;75.60;100647.34;6336250;28;20187;-71
2021/05/14 05:30:20;;;;;;;28.52;17.77;;;;;;;14.20;75.36;100649.72;6335617;28;20235;-71
2021/05/14 05:33:23;;;;;;;24.45;16.55;;;;;;;14.12;75.57;100642.69;6336688;28;20183;-70
2021/05/14 05:36:29;;;;;;;36.10;18.33;;;;;;;14.14;75.48;100646.03;6337088;28;20252;-71
2021/05/14 05:39:36;;;;;;;29.23;17.02;;;;;;;14.15;75.28;100646.88;6335784;28;20403;-71
2021/05/14 05:42:40;;;;;;;24.38;15.93;;;;;;;14.39;75.00;100649.28;6335712;28;20444;-71
2021/05/14 05:45:46;;;;;;;20.33;16.23;;;;;;;14.61;74.62;100646.66;6335624;28;20407;-71
2021/05/14 05:48:50;;;;;;;23.30;15.60;;;;;;;14.75;73.83;100637.03;6336783;28;20183;-71
2021/05/14 05:51:55;;;;;;;22.63;16.30;;;;;;;14.88;72.89;100639.44;6338567;28;20228;-71
2021/05/14 05:55:00;;;;;;;28.70;15.75;;;;;;;15.18;72.23;100635.47;6340248;28;20274;-71
2021/05/14 05:58:05;;;;;;;27.45;15.70;;;;;;;15.22;72.99;100625.66;6341547;28;20192;-72
2021/05/14 06:01:12;;;;;;;31.38;15.80;;;;;;;15.24;71.68;100631.75;6339927;28;20373;-71
2021/05/14 06:04:16;;;;;;;35.75;15.00;;;;;;;15.26;71.41;100637.81;6340596;28;20514;-71
2021/05/14 06:07:20;;;;;;;21.80;14.30;;;;;;;15.39;70.59;100638.28;6341053;28;20253;-72
2021/05/14 06:10:25;;;;;;;36.17;12.60;;;;;;;15.30;69.56;100649.97;6339328;28;20213;-71
2021/05/14 06:13:30;;;;;;;22.88;12.23;;;;;;;15.32;69.89;100664.28;6340959;28;20190;-71
2021/05/14 06:16:34;;;;;;;31.23;13.02;;;;;;;14.97;69.78;100673.63;6340525;28;20207;-71
2021/05/14 06:19:45;;;;;;;30.23;14.32;;;;;;;14.86;70.89;100677.31;6339374;28;20404;-71
2021/05/14 06:22:48;;;;;;;20.08;15.40;;;;;;;14.71;72.18;100674.31;6340731;28;20220;-71
2021/05/14 06:25:52;;;;;;;19.50;14.98;;;;;;;14.62;73.38;100670.28;6340382;28;20226;-71
2021/05/14 06:28:56;;;;;;;21.67;14.57;;;;;;;14.70;73.29;100667.13;6340084;28;20189;-70
2021/05/14 06:32:01;;;;;;;30.00;15.35;;;;;;;14.70;74.07;100661.66;6340840;28;20189;-71
2021/05/14 06:35:07;;;;;;;22.92;15.30;;;;;;;14.80;72.91;100661.81;6340184;28;20190;-71
2021/05/14 06:38:10;;;;;;;17.58;14.05;;;;;;;14.83;71.75;100661.31;6338846;28;20497;-71
2021/05/14 06:41:14;;;;;;;21.88;14.45;;;;;;;14.85;71.77;100664.66;6339771;28;20246;-70
2021/05/14 06:44:20;;;;;;;27.42;14.38;;;;;;;14.86;71.65;100671.81;6340204;28;20182;-70
2021/05/14 06:47:25;;;;;;;19.10;14.18;;;;;;;14.83;72.78;100665.97;6339904;28;20237;-70
2021/05/14 06:50:29;;;;;;;17.17;13.35;;;;;;;14.85;71.39;100664.66;6338743;28;20518;-71
2021/05/14 06:53:32;;;;;;;26.90;13.40;;;;;;;14.91;70.61;100669.16;6339769;28;20183;-70
2021/05/14 06:56:36;;;;;;;16.40;13.10;;;;;;;14.86;71.50;100666.31;6338546;28;20575;-71
2021/05/14 06:59:39;;;;;;;21.38;13.27;;;;;;;14.99;70.73;100655.00;6339816;28;20215;-71
2021/05/14 07:02:46;;;;;;;23.40;13.85;;;;;;;15.04;70.53;100648.75;6337451;28;20529;-71
2021/05/14 07:05:50;;;;;;;21.50;12.93;;;;;;;15.19;69.86;100648.16;6338186;28;20224;-71
2021/05/14 07:08:54;;;;;;;25.83;13.05;;;;;;;15.41;69.08;100649.03;6339436;28;20262;-71
2021/05/14 07:11:57;;;;;;;20.65;13.18;;;;;;;15.57;69.41;100654.53;6338222;28;20461;-71
2021/05/14 07:15:02;;;;;;;19.42;13.65;;;;;;;15.60;68.86;100650.44;6337914;28;20214;-70
2021/05/14 07:18:07;;;;;;;16.73;13.75;;;;;;;15.56;69.72;100649.28;6339474;28;20187;-70
2021/05/14 07:21:11;;;;;;;23.08;13.05;;;;;;;15.55;69.64;100647.63;6338746;28;20218;-71
2021/05/14 07:24:30;;;;;;;18.58;12.60;;;;;;;15.68;69.49;100651.91;6339028;28;20192;-70
2021/05/14 07:27:34;;;;;;;20.85;13.10;;;;;;;15.64;69.23;100652.41;6338993;28;20256;-70
2021/05/14 07:30:38;;;;;;;19.15;12.27;;;;;;;15.66;69.84;100646.69;6338936;28;20183;-71
2021/05/14 07:33:44;;;;;;;20.80;12.40;;;;;;;15.69;69.02;100632.41;6338605;28;20183;-71
2021/05/14 07:36:48;;;;;;;19.23;11.68;;;;;;;15.63;69.29;100639.78;6337342;28;20452;-71
2021/05/14 07:39:54;;;;;;;25.17;12.25;;;;;;;15.79;68.85;100643.56;6337279;28;20182;-71
2021/05/14 07:42:57;;;;;;;15.15;10.07;;;;;;;15.85;68.16;100637.00;6337384;28;20506;-71
2021/05/14 07:46:01;;;;;;;13.48;9.73;;;;;;;15.89;67.42;100648.34;6338076;28;20194;-71
2021/05/14 07:49:06;;;;;;;17.02;9.35;;;;;;;15.91;67.86;100641.50;6337117;28;20205;-71
2021/05/14 07:52:10;;;;;;;13.60;8.88;;;;;;;16.06;67.48;100633.41;6336982;28;20477;-71
2021/05/14 07:55:14;;;;;;;14.02;7.60;;;;;;;16.07;65.92;100639.75;6338148;28;20183;-70
2021/05/14 07:58:20;;;;;;;9.82;6.50;;;;;;;16.11;65.54;100636.22;6336892;28;20232;-71
2021/05/14 08:01:24;;;;;;;5.22;4.65;;;;;;;16.13;64.08;100639.53;6337069;28;20203;-71
2021/05/14 08:04:29;;;;;;;11.02;5.90;;;;;;;16.22;64.72;100649.03;6337521;28;20226;-70
2021/05/14 08:07:32;;;;;;;8.90;6.10;;;;;;;16.25;65.61;100642.97;6335785;28;20225;-70
2021/05/14 08:10:36;;;;;;;9.82;6.25;;;;;;;16.35;64.31;100635.94;6336439;28;20186;-70
2021/05/14 08:13:59;;;;;;;7.80;6.78;;;;;;;16.24;64.33;100638.56;6335399;28;20266;-70
2021/05/14 08:17:03;;;;;;;10.32;7.00;;;;;;;16.25;64.78;100637.47;6337508;28;20206;-70
2021/05/14 08:20:10;;;;;;;8.57;7.20;;;;;;;16.34;65.58;100650.78;6336205;28;20496;-70
2021/05/14 08:23:17;;;;;;;8.10;7.32;;;;;;;16.17;65.77;100639.88;6336925;28;20190;-70
2021/05/14 08:26:21;;;;;;;8.95;6.55;;;;;;;16.27;65.43;100643.56;6336100;28;20248;-70
2021/05/14 08:29:25;;;;;;;9.23;6.40;;;;;;;16.14;65.51;100649.47;6335316;28;20414;-70
2021/05/14 08:32:29;;;;;;;13.48;7.20;;;;;;;16.17;65.07;100640.72;6336009;28;20252;-69
2021/05/14 08:35:35;;;;;;;8.90;6.90;;;;;;;16.13;65.79;100634.03;6335954;28;20469;-70
2021/05/14 08:38:39;;;;;;;10.25;7.10;;;;;;;16.19;66.30;100637.69;6337048;28;20251;-70
2021/05/14 08:41:43;;;;;;;9.18;7.57;;;;;;;16.21;66.43;100639.09;6336813;28;20462;-70
2021/05/14 08:44:46;;;;;;;10.63;7.25;;;;;;;16.35;66.24;100644.19;6336985;28;20193;-70
2021/05/14 08:47:52;;;;;;;7.88;7.10;;;;;;;16.28;66.36;100650.72;6337134;28;20194;-70
2021/05/14 08:50:56;;;;;;;11.88;6.57;;;;;;;16.32;66.20;100647.44;6336669;28;20218;-70
2021/05/14 08:54:13;;;;;;;12.45;6.57;;;;;;;16.36;65.68;100648.63;6335661;28;20523;-71
2021/05/14 08:57:17;;;;;;;7.60;6.82;;;;;;;16.20;67.21;100651.19;6335494;28;20207;-70
2021/05/14 09:00:22;;;;;;;7.03;6.13;;;;;;;16.17;65.20;100657.22;6336413;28;20466;-70
2021/05/14 09:03:27;;;;;;;5.75;5.22;;;;;;;16.28;64.35;100653.47;6335714;28;20295;-70
2021/05/14 09:06:35;;;;;;;5.80;5.38;;;;;;;16.33;64.40;100649.13;6336766;28;20191;-71
2021/05/14 09:09:39;;;;;;;8.70;6.28;;;;;;;16.22;64.53;100646.28;6335690;28;20402;-71
2021/05/14 09:12:44;;;;;;;6.80;6.25;;;;;;;16.33;64.92;100646.38;6335744;28;20350;-71
2021/05/14 09:15:48;;;;;;;9.52;7.75;;;;;;;16.39;65.58;100648.06;6335619;28;20378;-71
2021/05/14 09:19:12;;;;;;;12.38;8.25;;;;;;;16.48;65.69;100652.03;6336177;28;20198;-71
2021/05/14 09:22:22;;;;;;;9.68;8.23;;;;;;;16.55;66.83;100652.69;6336102;28;20183;-71
2021/05/14 09:25:26;;;;;;;16.67;8.85;;;;;;;16.68;66.24;100660.53;6336385;28;20183;-71
2021/05/14 09:28:31;;;;;;;16.23;8.40;;;;;;;16.82;63.75;100658.97;6340542;28;20382;-71
2021/05/14 09:31:35;;;;;;;11.93;8.65;;;;;;;17.03;63.68;100666.34;6340266;28;20213;-71
2021/05/14 09:34:39;;;;;;;10.82;7.97;;;;;;;17.16;63.11;100657.63;6341294;28;20312;-71
2021/05/14 09:37:48;;;;;;;12.98;7.28;;;;;;;17.16;61.89;100649.34;6340155;28;20512;-71
2021/05/14 09:40:52;;;;;;;15.32;7.07;;;;;;;17.17;61.56;100662.06;6341446;28;20183;-71
2021/05/14 09:43:57;;;;;;;8.65;6.82;;;;;;;17.07;60.73;100659.22;6341087;28;20187;-71
2021/05/14 09:47:01;;;;;;;10.75;5.82;;;;;;;17.15;60.09;100650.47;6341053;28;20262;-71
2021/05/14 09:50:31;;;;;;;20.05;7.45;;;;;;;17.25;58.17;100663.47;6341212;28;20246;-71
2021/05/14 09:53:36;;;;;;;23.90;6.18;;;;;;;17.20;58.56;100656.00;6340161;28;20250;-71
2021/05/14 09:56:42;;;;;;;7.40;4.60;;;;;;;17.21;57.93;100662.34;6339713;28;20207;-71
2021/05/14 09:59:47;;;;;;;8.77;4.53;;;;;;;17.14;57.32;100662.56;6340594;28;20183;-71
2021/05/14 10:02:51;;;;;;;12.43;3.97;;;;;;;16.99;56.05;100665.22;6340039;28;20261;-71
2021/05/14 10:05:56;;;;;;;8.82;4.00;;;;;;;17.15;55.85;100658.72;6340701;28;20213;-71
2021/05/14 10:09:07;;;;;;;5.43;3.30;;;;;;;17.07;54.22;100667.50;6340123;28;20248;-71
2021/05/14 10:12:13;;;;;;;13.38;3.30;;;;;;;17.12;54.36;100652.91;6340535;28;20236;-70
2021/05/14 10:15:17;;;;;;;4.78;3.13;;;;;;;17.05;55.71;100658.63;6340482;28;20291;-70
2021/05/14 10:18:22;;;;;;;5.22;2.85;;;;;;;17.02;55.15;100670.19;6340502;28;20218;-72
2021/05/14 10:21:26;;;;;;;3.80;3.15;;;;;;;17.05;54.99;100664.13;6339150;28;20448;-71
2021/05/14 10:24:39;;;;;;;5.30;3.50;;;;;;;17.08;54.93;100662.78;6340043;28;20183;-71
2021/05/14 10:27:44;;;;;;;4.82;2.75;;;;;;;17.15;53.59;100664.25;6338728;28;20354;-70
2021/05/14 10:31:18;;;;;;;3.05;2.80;;;;;;;17.22;53.82;100664.84;6340843;28;20238;-70
2021/05/14 10:34:22;;;;;;;8.43;2.85;;;;;;;17.33;53.54;100672.06;6327083;28;20199;-70
2021/05/14 10:37:44;;;;;;;13.32;3.08;;;;;;;17.38;53.87;100668.53;6339803;28;20207;-70
2021/05/14 10:40:49;;;;;;;6.97;2.83;;;;;;;17.41;53.40;100668.00;6339541;28;20184;-70
2021/05/14 10:44:02;;;;;;;5.65;2.05;;;;;;;17.21;51.42;100667.84;6338628;28;20205;-71
2021/05/14 10:47:44;;;;;;;4.43;2.20;;;;;;;17.31;51.52;100668.75;6339646;28;20187;-70
2021/05/14 10:50:52;;;;;;;4.80;2.00;;;;;;;17.32;49.47;100675.09;6340107;28;20244;-70
2021/05/14 10:53:56;;;;;;;4.68;2.05;;;;;;;17.29;50.62;100676.47;6339967;28;20183;-71
2021/05/14 10:57:01;;;;;;;4.03;2.25;;;;;;;17.30;50.67;100683.66;6338203;28;20533;-70
2021/05/14 11:00:31;;;;;;;5.43;1.95;;;;;;;17.30;50.21;100682.81;6339843;28;20186;-70
2021/05/14 11:03:39;;;;;;;15.82;2.30;;;;;;;17.17;50.65;100695.13;6338192;28;20556;-71
2021/05/14 11:06:44;;;;;;;5.43;2.25;;;;;;;17.13;49.68;100693.97;6339183;28;20190;-70
2021/05/14 11:10:24;;;;;;;3.15;1.85;;;;;;;17.19;50.24;100703.97;6338273;28;20414;-70
2021/05/14 11:13:48;;;;;;;6.88;2.40;;;;;;;17.22;49.84;100689.66;6334803;28;20197;-70
2021/05/14 11:16:52;;;;;;;3.58;2.28;;;;;;;17.25;50.64;100702.91;6338928;28;20215;-70
2021/05/14 11:19:57;;;;;;;2.22;2.08;;;;;;;17.11;50.27;100709.13;6337735;28;20183;-70
2021/05/14 11:23:33;;;;;;;6.05;2.42;;;;;;;16.78;52.57;100712.97;6339186;28;20183;-70
2021/05/14 11:26:37;;;;;;;7.38;2.42;;;;;;;16.56;54.61;100714.94;6336290;28;20428;-70
2021/05/14 11:29:45;;;;;;;2.55;2.38;;;;;;;16.62;54.85;100719.41;6337678;28;20478;-70
2021/05/14 11:32:51;;;;;;;3.85;2.30;;;;;;;16.38;56.41;100712.50;6337900;28;20206;-70
2021/05/14 11:35:55;;;;;;;2.40;2.20;;;;;;;16.37;57.25;100721.84;6337804;28;20249;-70
2021/05/14 11:38:59;;;;;;;2.67;2.40;;;;;;;16.64;58.11;100708.97;6338548;28;20210;-71
2021/05/14 11:42:05;;;;;;;8.48;2.70;;;;;;;16.15;60.37;100708.13;6338745;28;20265;-70
2021/05/14 11:45:11;;;;;;;6.40;2.50;;;;;;;16.32;60.85;100713.53;6337404;28;20448;-70
2021/05/14 11:48:18;;;;;;;5.70;2.78;;;;;;;16.37;61.23;100719.09;6337368;28;20434;-70
2021/05/14 11:51:22;;;;;;;4.68;2.83;;;;;;;15.94;63.64;100723.53;6337116;28;20381;-70
2021/05/14 11:54:27;;;;;;;4.90;2.83;;;;;;;16.09;64.64;100715.47;6338280;28;20259;-70
2021/05/14 11:57:31;;;;;;;3.65;2.85;;;;;;;16.06;66.64;100715.97;6338224;28;20244;-70
2021/05/14 12:00:37;;;;;;;5.63;2.70;;;;;;;15.82;65.60;100714.53;6336898;28;20473;-69
2021/05/14 12:03:44;;;;;;;5.00;3.40;;;;;;;15.87;66.21;100709.09;6337458;28;20237;-70
2021/05/14 12:06:49;;;;;;;9.43;4.05;;;;;;;16.02;68.51;100720.31;6336718;28;20410;-70
2021/05/14 12:10:00;;;;;;;4.63;3.53;;;;;;;16.01;68.93;100706.81;6337991;28;20193;-70
2021/05/14 12:13:05;;;;;;;4.15;3.67;;;;;;;15.72;67.36;100714.41;6336623;28;20183;-69
2021/05/14 12:16:13;;;;;;;5.57;3.20;;;;;;;15.52;69.60;100706.69;6336732;28;20434;-69
2021/05/14 12:19:18;;;;;;;6.13;3.58;;;;;;;15.57;69.48;100701.28;6337558;28;20214;-70
2021/05/14 12:22:21;;;;;;;4.35;4.03;;;;;;;15.36;70.48;100698.44;6336389;28;20489;-70
2021/05/14 12:25:26;;;;;;;6.28;3.17;;;;;;;15.49;70.88;100692.63;6337581;28;20214;-70
2021/05/14 12:28:36;;;;;;;6.35;3.53;;;;;;;15.42;71.16;100691.94;6337465;28;20225;-69
2021/05/14 12:31:42;;;;;;;5.65;2.92;;;;;;;15.41;71.43;100695.75;6337112;28;20221;-69
2021/05/14 12:34:51;;;;;;;3.40;3.10;;;;;;;15.34;70.96;100679.44;6336591;28;20221;-69
2021/05/14 12:37:56;;;;;;;3.50;3.20;;;;;;;15.11;71.96;100678.78;6336437;28;20207;-69
2021/05/14 12:41:00;;;;;;;8.23;2.72;;;;;;;15.32;72.52;100680.78;6337117;28;20189;-69
2021/05/14 12:44:11;;;;;;;4.28;3.17;;;;;;;15.30;71.75;100685.72;6336722;28;20183;-69
2021/05/14 12:47:18;;;;;;;3.15;3.05;;;;;;;15.40;71.68;100677.63;6336361;28;20182;-69
2021/05/14 12:50:25;;;;;;;3.92;2.95;;;;;;;15.59;70.83;100684.50;6336988;28;20187;-70
2021/05/14 12:53:29;;;;;;;7.20;3.30;;;;;;;15.58;70.45;100680.13;6337421;28;20245;-70
2021/05/14 12:56:34;;;;;;;4.32;3.17;;;;;;;15.64;70.13;100679.06;6336874;28;20183;-69
2021/05/14 12:59:48;;;;;;;7.63;3.30;;;;;;;15.84;70.47;100676.63;6336835;28;20206;-70
2021/05/14 13:02:54;;;;;;;9.63;3.67;;;;;;;15.87;70.42;100662.34;6339775;28;20234;-70
2021/05/14 13:05:58;;;;;;;7.55;3.90;;;;;;;15.94;68.89;100668.50;6342173;28;20262;-70
2021/05/14 13:09:17;;;;;;;6.47;3.47;;;;;;;16.12;69.92;100664.59;6342147;28;20187;-69
2021/05/14 13:12:21;;;;;;;3.03;2.92;;;;;;;16.39;68.33;100653.56;6341996;28;20182;-70
2021/05/14 13:15:25;;;;;;;3.30;2.92;;;;;;;16.33;67.51;100649.13;6341034;28;20190;-70
2021/05/14 13:18:31;;;;;;;4.97;2.90;;;;;;;16.53;68.08;100649.38;6341975;28;20217;-70
2021/05/14 13:21:34;;;;;;;3.70;2.28;;;;;;;16.80;66.52;100655.66;6341542;28;20276;-70
2021/05/14 13:24:38;;;;;;;4.03;2.40;;;;;;;16.69;65.19;100648.44;6341829;28;20189;-70
2021/05/14 13:27:41;;;;;;;6.63;2.90;;;;;;;16.55;65.16;100652.69;6340441;28;20183;-70
2021/05/14 13:30:45;;;;;;;3.83;3.45;;;;;;;16.60;64.67;100655.47;6341674;28;20187;-70
2021/05/14 13:33:50;;;;;;;2.80;2.70;;;;;;;17.02;64.98;100653.66;6341729;28;20183;-70
2021/05/14 13:36:54;;;;;;;2.80;2.60;;;;;;;17.56;60.01;100636.97;6341341;28;20182;-70
2021/05/14 13:39:59;;;;;;;2.95;2.40;;;;;;;17.39;59.65;100648.94;6341003;28;20252;-70
2021/05/14 13:43:05;;;;;;;2.75;2.55;;;;;;;17.38;60.23;100647.28;6341324;28;20191;-70
2021/05/14 13:46:09;;;;;;;2.60;2.45;;;;;;;17.17;60.64;100651.03;6340005;28;20476;-70
2021/05/14 13:49:13;;;;;;;3.70;2.10;;;;;;;17.24;60.88;100646.09;6341215;28;20191;-70
2021/05/14 13:52:17;;;;;;;3.92;2.47;;;;;;;17.22;61.03;100640.03;6339934;28;20489;-69
2021/05/14 13:55:20;;;;;;;2.38;2.28;;;;;;;17.16;59.74;100646.59;6339547;28;20183;-71
2021/05/14 13:58:24;;;;;;;2.67;2.63;;;;;;;17.18;60.30;100644.41;6339333;28;20214;-70
2021/05/14 14:01:28;;;;;;;2.72;2.33;;;;;;;17.24;59.82;100640.59;6340725;28;20241;-70
2021/05/14 14:04:32;;;;;;;1.90;1.90;;;;;;;17.02;59.08;100642.66;6340586;28;20233;-70
2021/05/14 14:07:36;;;;;;;3.35;1.90;;;;;;;16.91;59.94;100646.41;6340698;28;20183;-70
2021/05/14 14:10:41;;;;;;;2.30;2.25;;;;;;;17.00;60.53;100644.81;6339382;28;20225;-70
2021/05/14 14:13:45;;;;;;;2.47;2.40;;;;;;;17.29;59.71;100642.53;6340189;28;20220;-70
2021/05/14 14:16:48;;;;;;;3.72;2.20;;;;;;;17.14;59.80;100640.53;6339311;28;20267;-69